createdAt,value
2019-02-18T00:00:03.292Z,17.85
2019-02-18T00:01:03.033Z,21.77
2019-02-18T00:02:03.709Z,16.95
2019-02-18T00:03:03.021Z,17.88
2019-02-18T00:04:03.588Z,19.46
2019-02-18T00:05:03.004Z,18.15
2019-02-18T00:06:03.019Z,25.13
2019-02-18T00:07:03.000Z,22.22
2019-02-18T00:08:03.305Z,20.59
2019-02-18T00:09:02.797Z,19.05
2019-02-18T00:10:02.930Z,23.64
2019-02-18T00:11:03.140Z,23.44
2019-02-18T00:12:02.829Z,23
2019-02-18T00:13:03.566Z,20.37
2019-02-18T00:14:03.268Z,21.59
2019-02-18T00:15:03.780Z,25.3
2019-02-18T00:16:02.869Z,22.79
2019-02-18T00:17:03.535Z,23.98
2019-02-18T00:18:03.706Z,22.3
2019-02-18T00:19:03.232Z,21.19
2019-02-18T00:20:03.049Z,21.64
2019-02-18T00:21:03.204Z,19.03
2019-02-18T00:22:03.604Z,21.94
2019-02-18T00:23:02.890Z,20.95
2019-02-18T00:24:02.980Z,24.84
2019-02-18T00:25:03.676Z,19.51
2019-02-18T00:26:03.567Z,19.48
2019-02-18T00:27:03.061Z,21.89
2019-02-18T00:28:03.109Z,18.49
2019-02-18T00:29:03.585Z,18.49
2019-02-18T00:30:02.877Z,21.09
2019-02-18T00:31:03.541Z,21.09
2019-02-18T00:32:03.713Z,21.7
2019-02-18T00:33:02.767Z,22.48
2019-02-18T00:34:03.428Z,22.48
2019-02-18T00:35:03.010Z,19.45
2019-02-18T00:36:03.214Z,24.62
2019-02-18T00:37:02.824Z,23.01
2019-02-18T00:38:03.589Z,22.23
2019-02-18T00:39:02.950Z,21.9
2019-02-18T00:40:03.984Z,20.89
2019-02-18T00:41:02.943Z,20.07
2019-02-18T00:42:03.015Z,19.32
2019-02-18T00:43:03.669Z,19.42
2019-02-18T00:44:03.250Z,20.21
2019-02-18T00:45:03.507Z,18.76
2019-02-18T00:46:03.523Z,20.31
2019-02-18T00:47:03.145Z,21.04
2019-02-18T00:48:03.308Z,20.67
2019-02-18T00:49:02.943Z,21.28
2019-02-18T00:50:03.393Z,23.52
2019-02-18T00:51:03.322Z,21.55
2019-02-18T00:52:03.737Z,21.86
2019-02-18T00:53:04.069Z,22.72
2019-02-18T00:54:03.784Z,22.22
2019-02-18T00:55:03.103Z,20.71
2019-02-18T00:56:03.344Z,26.55
2019-02-18T00:57:02.834Z,22.64
2019-02-18T00:58:03.540Z,22.12
2019-02-18T00:59:03.485Z,23.66
2019-02-18T01:00:03.125Z,23.01
2019-02-18T01:01:03.363Z,22.89
2019-02-18T01:02:02.512Z,23.88
2019-02-18T01:03:03.320Z,24.62
2019-02-18T01:04:02.833Z,25.09
2019-02-18T01:05:03.451Z,24.6
2019-02-18T01:06:02.668Z,29.01
2019-02-18T01:07:03.141Z,24.88
2019-02-18T01:08:03.620Z,22.34
2019-02-18T01:09:03.194Z,25.08
2019-02-18T01:10:02.986Z,26.25
2019-02-18T01:11:02.924Z,29.48
2019-02-18T01:12:03.328Z,24.27
2019-02-18T01:13:02.918Z,24.91
2019-02-18T01:14:03.487Z,23.05
2019-02-18T01:15:03.069Z,23.93
2019-02-18T01:16:03.609Z,24.29
2019-02-18T01:17:02.655Z,25.29
2019-02-18T01:18:03.726Z,24.54
2019-02-18T01:19:02.889Z,24.54
2019-02-18T01:20:03.279Z,25.69
2019-02-18T01:21:03.659Z,29.13
2019-02-18T01:22:03.343Z,24.25
2019-02-18T01:23:03.641Z,24.31
2019-02-18T01:24:03.169Z,22.43
2019-02-18T01:25:03.480Z,24.34
2019-02-18T01:26:02.940Z,24.91
2019-02-18T01:27:03.189Z,24.72
2019-02-18T01:28:03.850Z,24.31
2019-02-18T01:29:03.501Z,23.25
2019-02-18T01:30:03.451Z,25.1
2019-02-18T01:31:02.835Z,20.71
2019-02-18T01:32:03.274Z,19.68
2019-02-18T01:33:03.430Z,22.37
2019-02-18T01:34:02.978Z,23.42
2019-02-18T01:35:02.995Z,20.47
2019-02-18T01:36:03.277Z,21.57
2019-02-18T01:37:03.675Z,23.08
2019-02-18T01:38:03.141Z,20.63
2019-02-18T01:39:02.747Z,21.08
2019-02-18T01:40:03.233Z,26.96
2019-02-18T01:41:02.775Z,23.07
2019-02-18T01:42:03.063Z,25.59
2019-02-18T01:43:02.659Z,22.58
2019-02-18T01:44:03.553Z,23.86
2019-02-18T01:45:03.792Z,22.79
2019-02-18T01:46:02.813Z,24.49
2019-02-18T01:47:03.378Z,24.29
2019-02-18T01:48:02.949Z,21.71
2019-02-18T01:49:03.394Z,25.94
2019-02-18T01:50:02.799Z,23.25
2019-02-18T01:51:02.857Z,29.95
2019-02-18T01:52:03.286Z,24.28
2019-02-18T01:53:02.812Z,23.88
2019-02-18T01:54:03.610Z,28.11
2019-02-18T01:55:03.052Z,29.39
2019-02-18T01:56:03.563Z,23.33
2019-02-18T01:57:02.774Z,25.58
2019-02-18T01:58:03.392Z,20.88
2019-02-18T01:59:03.613Z,20.78
2019-02-18T02:00:03.386Z,23.28
2019-02-18T02:01:02.628Z,23.76
2019-02-18T02:02:03.093Z,21.2
2019-02-18T02:03:03.449Z,23.19
2019-02-18T02:04:03.233Z,25.92
2019-02-18T02:05:03.307Z,23.52
2019-02-18T02:06:03.551Z,22.66
2019-02-18T02:07:03.115Z,22.66
2019-02-18T02:08:03.013Z,21.68
2019-02-18T02:09:03.436Z,19.88
2019-02-18T02:10:03.635Z,19.88
2019-02-18T02:11:02.880Z,20.58
2019-02-18T02:12:03.176Z,24.62
2019-02-18T02:13:02.687Z,24.62
2019-02-18T02:14:02.950Z,23.4
2019-02-18T02:15:03.037Z,25
2019-02-18T02:16:03.190Z,23.68
2019-02-18T02:17:03.817Z,24.3
2019-02-18T02:18:03.134Z,23.09
2019-02-18T02:19:02.757Z,27.15
2019-02-18T02:20:03.014Z,20.28
2019-02-18T02:21:03.459Z,24.11
2019-02-18T02:22:03.026Z,26.89
2019-02-18T02:23:03.018Z,23.37
2019-02-18T02:24:03.521Z,24.66
2019-02-18T02:25:03.289Z,25.19
2019-02-18T02:26:03.772Z,26.5
2019-02-18T02:27:03.224Z,24.16
2019-02-18T02:28:03.643Z,23.95
2019-02-18T02:29:03.107Z,26.68
2019-02-18T02:30:03.472Z,22.14
2019-02-18T02:31:03.111Z,32.02
2019-02-18T02:32:03.072Z,27.22
2019-02-18T02:33:03.372Z,25.92
2019-02-18T02:34:03.127Z,34.73
2019-02-18T02:35:03.590Z,25.82
2019-02-18T02:36:03.423Z,30.01
2019-02-18T02:37:02.963Z,29.99
2019-02-18T02:38:07.500Z,28.91
2019-02-18T02:39:02.757Z,28.22
2019-02-18T02:40:03.729Z,26.49
2019-02-18T02:41:02.870Z,28.31
2019-02-18T02:42:03.372Z,22.9
2019-02-18T02:43:02.931Z,32.43
2019-02-18T02:44:03.306Z,27.88
2019-02-18T02:45:03.804Z,27.12
2019-02-18T02:46:03.209Z,30.03
2019-02-18T02:47:03.506Z,26.72
2019-02-18T02:48:02.942Z,31.04
2019-02-18T02:49:03.367Z,25.78
2019-02-18T02:50:03.610Z,28.36
2019-02-18T02:51:03.043Z,29.68
2019-02-18T02:52:03.494Z,30.35
2019-02-18T02:53:03.152Z,27.1
2019-02-18T02:54:03.628Z,31.44
2019-02-18T02:55:03.092Z,23.76
2019-02-18T02:56:03.472Z,24.35
2019-02-18T02:57:03.073Z,29.2
2019-02-18T02:58:03.629Z,25.83
2019-02-18T02:59:02.953Z,25.83
2019-02-18T03:00:03.777Z,24.12
2019-02-18T03:01:02.914Z,26.28
2019-02-18T03:02:03.351Z,26.28
2019-02-18T03:03:02.883Z,26.51
2019-02-18T03:04:03.317Z,27.82
2019-02-18T03:05:02.922Z,24.52
2019-02-18T03:06:03.306Z,26.88
2019-02-18T03:07:03.326Z,26.88
2019-02-18T03:08:02.871Z,25.39
2019-02-18T03:09:03.392Z,23.77
2019-02-18T03:10:02.658Z,22.99
2019-02-18T03:11:03.820Z,24.88
2019-02-18T03:12:03.522Z,27.32
2019-02-18T03:13:03.238Z,28.82
2019-02-18T03:14:03.493Z,23.95
2019-02-18T03:15:03.288Z,26.01
2019-02-18T03:16:03.658Z,27.57
2019-02-18T03:17:03.253Z,28.89
2019-02-18T03:18:03.437Z,28.16
2019-02-18T03:19:02.839Z,28.86
2019-02-18T03:20:03.120Z,25.69
2019-02-18T03:21:03.812Z,27.26
2019-02-18T03:22:02.994Z,28.52
2019-02-18T03:23:03.529Z,29.55
2019-02-18T03:24:03.045Z,28.68
2019-02-18T03:25:03.516Z,31.99
2019-02-18T03:26:03.589Z,25.75
2019-02-18T03:27:03.142Z,30.32
2019-02-18T03:28:03.398Z,29.78
2019-02-18T03:29:02.944Z,30.93
2019-02-18T03:30:02.907Z,24.89
2019-02-18T03:31:03.101Z,21.98
2019-02-18T03:32:03.162Z,21.8
2019-02-18T03:33:02.831Z,30.3
2019-02-18T03:34:03.561Z,26.22
2019-02-18T03:35:02.986Z,25.65
2019-02-18T03:36:04.077Z,27.02
2019-02-18T03:37:02.975Z,23.15
2019-02-18T03:38:03.369Z,25.74
2019-02-18T03:39:02.938Z,23.69
2019-02-18T03:40:03.158Z,24.29
2019-02-18T03:41:03.609Z,31.76
2019-02-18T03:42:03.899Z,25.56
2019-02-18T03:43:03.181Z,24.02
2019-02-18T03:44:03.025Z,25.55
2019-02-18T03:45:03.474Z,22.76
2019-02-18T03:46:02.887Z,23.17
2019-02-18T03:47:03.269Z,23.17
2019-02-18T03:48:02.566Z,23.02
2019-02-18T03:49:02.887Z,29.9
2019-02-18T03:50:02.586Z,29.9
2019-02-18T03:51:03.475Z,30.57
2019-02-18T03:52:03.622Z,27.2
2019-02-18T03:53:03.336Z,27.2
2019-02-18T03:54:02.739Z,24.09
2019-02-18T03:55:02.792Z,26.15
2019-02-18T03:56:03.121Z,26.01
2019-02-18T03:57:02.663Z,27.28
2019-02-18T03:58:03.346Z,25.77
2019-02-18T03:59:02.786Z,24.19
2019-02-18T04:00:03.351Z,31.16
2019-02-18T04:01:02.775Z,28.84
2019-02-18T04:02:03.184Z,28.54
2019-02-18T04:03:03.563Z,24.77
2019-02-18T04:04:03.242Z,25.02
2019-02-18T04:05:03.306Z,26.78
2019-02-18T04:06:02.888Z,27.66
2019-02-18T04:07:03.607Z,27.13
2019-02-18T04:08:03.127Z,27.77
2019-02-18T04:09:03.332Z,35.69
2019-02-18T04:10:02.922Z,30.54
2019-02-18T04:11:03.053Z,29.22
2019-02-18T04:12:02.811Z,30.49
2019-02-18T04:13:02.994Z,29.16
2019-02-18T04:14:02.941Z,32.86
2019-02-18T04:15:03.342Z,26.96
2019-02-18T04:16:02.680Z,34.52
2019-02-18T04:17:03.574Z,40.15
2019-02-18T04:18:02.684Z,29.01
2019-02-18T04:19:03.408Z,27.29
2019-02-18T04:20:03.697Z,30.32
2019-02-18T04:21:03.263Z,32.11
2019-02-18T04:22:02.568Z,30.77
2019-02-18T04:23:03.171Z,32.19
2019-02-18T04:24:02.895Z,31.68
2019-02-18T04:25:03.170Z,26.93
2019-02-18T04:26:02.701Z,28.04
2019-02-18T04:27:02.996Z,29.29
2019-02-18T04:28:03.543Z,31.39
2019-02-18T04:29:02.689Z,34.43
2019-02-18T04:30:03.326Z,27.58
2019-02-18T04:31:03.153Z,27.94
2019-02-18T04:32:03.270Z,30.94
2019-02-18T04:33:02.864Z,27.84
2019-02-18T04:34:03.278Z,28.96
2019-02-18T04:35:02.784Z,28.96
2019-02-18T04:36:03.501Z,27.18
2019-02-18T04:37:03.478Z,30.74
2019-02-18T04:38:03.071Z,30.74
2019-02-18T04:39:03.292Z,29.18
2019-02-18T04:40:02.956Z,29.18
2019-02-18T04:41:03.317Z,28.94
2019-02-18T04:42:02.760Z,35.16
2019-02-18T04:43:03.267Z,27.76
2019-02-18T04:44:02.878Z,26.11
2019-02-18T04:45:03.416Z,32.25
2019-02-18T04:46:02.996Z,26.36
2019-02-18T04:47:03.460Z,26.11
2019-02-18T04:48:03.613Z,31.46
2019-02-18T04:49:02.862Z,26.95
2019-02-18T04:50:03.516Z,30.31
2019-02-18T04:51:02.998Z,29.2
2019-02-18T04:52:03.441Z,30.16
2019-02-18T04:53:03.765Z,32.89
2019-02-18T04:54:03.045Z,30.21
2019-02-18T04:55:03.687Z,25.7
2019-02-18T04:56:03.102Z,28.87
2019-02-18T04:57:02.736Z,31.99
2019-02-18T04:58:06.001Z,32.02
2019-02-18T04:59:03.694Z,27.75
2019-02-18T05:00:03.125Z,30.71
2019-02-18T05:01:03.447Z,31.01
2019-02-18T05:02:02.696Z,28.36
2019-02-18T05:03:03.196Z,26.16
2019-02-18T05:04:02.967Z,27.57
2019-02-18T05:05:03.501Z,24.45
2019-02-18T05:06:02.705Z,29.37
2019-02-18T05:07:03.094Z,27.91
2019-02-18T05:08:03.405Z,28.29
2019-02-18T05:09:05.449Z,21.78
2019-02-18T05:10:03.610Z,27.72
2019-02-18T05:11:03.029Z,24.85
2019-02-18T05:12:03.283Z,26.84
2019-02-18T05:13:02.918Z,28.24
2019-02-18T05:14:03.471Z,29.94
2019-02-18T05:15:03.642Z,27.54
2019-02-18T05:16:03.151Z,34.33
2019-02-18T05:17:03.649Z,29.94
2019-02-18T05:18:03.101Z,30.91
2019-02-18T05:19:03.574Z,37.29
2019-02-18T05:20:03.113Z,33.09
2019-02-18T05:21:02.915Z,30.07
2019-02-18T05:22:03.236Z,28.53
2019-02-18T05:23:02.636Z,28.76
2019-02-18T05:24:03.060Z,30.64
2019-02-18T05:25:03.723Z,30.64
2019-02-18T05:26:02.639Z,32.24
2019-02-18T05:27:03.418Z,32.24
2019-02-18T05:28:02.988Z,28.7
2019-02-18T05:29:03.334Z,30.36
2019-02-18T05:30:02.567Z,30.36
2019-02-18T05:31:03.069Z,27.53
2019-02-18T05:32:03.370Z,32.65
2019-02-18T05:33:02.982Z,32.65
2019-02-18T05:34:02.807Z,36.89
2019-02-18T05:35:03.227Z,28.93
2019-02-18T05:36:02.723Z,29.35
2019-02-18T05:37:02.976Z,30.18
2019-02-18T05:38:02.582Z,30.45
2019-02-18T05:39:02.920Z,24.79
2019-02-18T05:40:03.527Z,30.62
2019-02-18T05:41:03.107Z,28.88
2019-02-18T05:42:03.554Z,28.99
2019-02-18T05:43:02.982Z,27.77
2019-02-18T05:44:03.104Z,29.22
2019-02-18T05:45:03.697Z,27.45
2019-02-18T05:46:03.354Z,27.13
2019-02-18T05:47:03.482Z,27.65
2019-02-18T05:48:03.186Z,28.33
2019-02-18T05:49:03.643Z,23.45
2019-02-18T05:50:03.146Z,28.28
2019-02-18T05:51:03.530Z,33.36
2019-02-18T05:52:02.644Z,33.32
2019-02-18T05:53:03.588Z,27.75
2019-02-18T05:54:02.845Z,23.3
2019-02-18T05:55:03.521Z,25.66
2019-02-18T05:56:02.805Z,25.31
2019-02-18T05:57:03.152Z,26.92
2019-02-18T05:58:02.742Z,32.2
2019-02-18T05:59:03.203Z,22.31
2019-02-18T06:00:02.981Z,27.01
2019-02-18T06:01:03.402Z,33.7
2019-02-18T06:02:02.935Z,26.98
2019-02-18T06:03:03.278Z,29.38
2019-02-18T06:04:03.618Z,27.04
2019-02-18T06:05:02.831Z,30.11
2019-02-18T06:06:03.676Z,29.74
2019-02-18T06:07:02.973Z,37.88
2019-02-18T06:08:03.633Z,32.39
2019-02-18T06:09:02.762Z,32.75
2019-02-18T06:10:03.472Z,32.45
2019-02-18T06:11:03.135Z,32.39
2019-02-18T06:12:03.378Z,30.29
2019-02-18T06:13:02.888Z,30.29
2019-02-18T06:14:03.075Z,29.92
2019-02-18T06:15:03.479Z,32.97
2019-02-18T06:16:02.617Z,32.97
2019-02-18T06:17:02.972Z,32.62
2019-02-18T06:18:02.594Z,32.62
2019-02-18T06:19:03.017Z,27.14
2019-02-18T06:20:03.738Z,27.14
2019-02-18T06:21:03.077Z,27.74
2019-02-18T06:22:03.375Z,27.64
2019-02-18T06:23:03.433Z,26.12
2019-02-18T06:24:03.310Z,30.06
2019-02-18T06:25:02.819Z,30.05
2019-02-18T06:26:03.279Z,36.81
2019-02-18T06:27:02.758Z,27.96
2019-02-18T06:28:04.909Z,32.59
2019-02-18T06:29:03.772Z,31.55
2019-02-18T06:30:03.231Z,33.68
2019-02-18T06:31:03.493Z,32.71
2019-02-18T06:32:03.191Z,35.2
2019-02-18T06:33:03.790Z,40.28
2019-02-18T06:34:02.979Z,30.65
2019-02-18T06:35:03.490Z,31.55
2019-02-18T06:36:03.707Z,33.46
2019-02-18T06:37:03.270Z,32.48
2019-02-18T06:38:03.675Z,27.38
2019-02-18T06:39:03.231Z,27.69
2019-02-18T06:40:03.801Z,26.78
2019-02-18T06:41:03.051Z,32.41
2019-02-18T06:42:03.396Z,31.64
2019-02-18T06:43:03.085Z,30.71
2019-02-18T06:44:03.737Z,29.08
2019-02-18T06:45:03.435Z,29.79
2019-02-18T06:46:03.628Z,29.42
2019-02-18T06:47:03.086Z,27.27
2019-02-18T06:48:03.788Z,28.23
2019-02-18T06:49:02.847Z,35.65
2019-02-18T06:50:03.929Z,31.76
2019-02-18T06:51:02.879Z,34.03
2019-02-18T06:52:03.407Z,29.18
2019-02-18T06:53:02.704Z,36.9
2019-02-18T06:54:03.287Z,34.43
2019-02-18T06:55:03.552Z,38.09
2019-02-18T06:56:03.149Z,34.14
2019-02-18T06:57:02.851Z,30.64
2019-02-18T06:58:03.161Z,37.89
2019-02-18T06:59:02.775Z,32.1
2019-02-18T07:00:03.228Z,33.38
2019-02-18T07:01:03.708Z,41.04
2019-02-18T07:02:03.092Z,43.96
2019-02-18T07:03:03.518Z,43.96
2019-02-18T07:04:02.957Z,43.05
2019-02-18T07:05:03.116Z,51.06
2019-02-18T07:06:02.641Z,51.06
2019-02-18T07:07:02.925Z,46.05
2019-02-18T07:08:03.395Z,46.05
2019-02-18T07:09:03.826Z,44.31
2019-02-18T07:10:03.566Z,46.11
2019-02-18T07:11:02.959Z,42.45
2019-02-18T07:12:03.021Z,37.49
2019-02-18T07:13:02.570Z,44.77
2019-02-18T07:14:03.342Z,44.65
2019-02-18T07:15:03.554Z,47.18
2019-02-18T07:16:02.837Z,38.64
2019-02-18T07:17:03.479Z,46.9
2019-02-18T07:18:02.845Z,38.4
2019-02-18T07:19:03.203Z,35.36
2019-02-18T07:20:02.717Z,40.53
2019-02-18T07:21:03.594Z,41.05
2019-02-18T07:22:02.831Z,42.73
2019-02-18T07:23:03.652Z,42.85
2019-02-18T07:24:02.922Z,36.24
2019-02-18T07:25:03.375Z,38.52
2019-02-18T07:26:02.925Z,36.17
2019-02-18T07:27:04.114Z,45.72
2019-02-18T07:28:02.718Z,33.58
2019-02-18T07:29:03.506Z,44.11
2019-02-18T07:30:02.640Z,42.51
2019-02-18T07:31:02.922Z,32.82
2019-02-18T07:32:03.426Z,47.46
2019-02-18T07:33:02.770Z,47.53
2019-02-18T07:34:03.239Z,33.55
2019-02-18T07:35:03.039Z,37.56
2019-02-18T07:36:03.718Z,33.9
2019-02-18T07:37:02.981Z,31.31
2019-02-18T07:38:03.176Z,35.79
2019-02-18T07:39:03.126Z,34.31
2019-02-18T07:40:03.591Z,29.51
2019-02-18T07:41:03.175Z,32.49
2019-02-18T07:42:03.539Z,30.83
2019-02-18T07:43:02.814Z,30.45
2019-02-18T07:44:03.142Z,35.47
2019-02-18T07:45:02.800Z,32.08
2019-02-18T07:46:02.956Z,41.31
2019-02-18T07:47:03.599Z,36.9
2019-02-18T07:48:03.229Z,48.25
2019-02-18T07:49:02.466Z,33.31
2019-02-18T07:50:03.708Z,33.91
2019-02-18T07:51:03.642Z,29.64
2019-02-18T07:52:03.094Z,33.3
2019-02-18T07:53:03.694Z,43.15
2019-02-18T07:54:02.855Z,41.83
2019-02-18T07:55:03.573Z,38.28
2019-02-18T07:56:03.168Z,38.28
2019-02-18T07:57:03.595Z,39.58
2019-02-18T07:58:02.873Z,41.45
2019-02-18T07:59:03.635Z,41.45
2019-02-18T08:00:03.003Z,42.2
2019-02-18T08:01:02.693Z,32.68
2019-02-18T08:02:02.811Z,41.27
2019-02-18T08:03:03.236Z,39.81
2019-02-18T08:04:02.472Z,47.56
2019-02-18T08:05:03.641Z,41.89
2019-02-18T08:06:03.458Z,39.75
2019-02-18T08:07:03.297Z,40.87
2019-02-18T08:08:03.333Z,42.18
2019-02-18T08:09:03.068Z,35.4
2019-02-18T08:10:11.648Z,35.05
2019-02-18T08:11:03.169Z,35
2019-02-18T08:12:03.448Z,37.09
2019-02-18T08:13:02.905Z,42.75
2019-02-18T08:14:03.007Z,41.49
2019-02-18T08:15:03.694Z,40.66
2019-02-18T08:16:03.260Z,38.46
2019-02-18T08:17:03.661Z,40.98
2019-02-18T08:18:03.141Z,41.18
2019-02-18T08:19:03.749Z,38.75
2019-02-18T08:20:03.386Z,36.19
2019-02-18T08:21:02.881Z,36.85
2019-02-18T08:22:02.860Z,37.72
2019-02-18T08:23:03.380Z,39.99
2019-02-18T08:24:03.060Z,45.67
2019-02-18T08:25:03.368Z,40.34
2019-02-18T08:26:02.682Z,40.96
2019-02-18T08:27:03.695Z,39.09
2019-02-18T08:28:02.833Z,37.28
2019-02-18T08:29:02.864Z,41.34
2019-02-18T08:30:03.812Z,42.31
2019-02-18T08:31:03.023Z,38.48
2019-02-18T08:32:03.619Z,42.19
2019-02-18T08:33:02.943Z,40.88
2019-02-18T08:34:03.395Z,36.97
2019-02-18T08:35:02.815Z,33.3
2019-02-18T08:36:03.018Z,38.61
2019-02-18T08:37:02.823Z,39.08
2019-02-18T08:38:03.508Z,40
2019-02-18T08:39:02.732Z,35.44
2019-02-18T08:40:03.047Z,39.4
2019-02-18T08:41:03.711Z,33.77
2019-02-18T08:42:02.852Z,33.84
2019-02-18T08:43:02.567Z,33.84
2019-02-18T08:44:02.918Z,34.63
2019-02-18T08:45:02.551Z,34.63
2019-02-18T08:46:03.044Z,38.11
2019-02-18T08:47:03.426Z,35.09
2019-02-18T08:48:03.151Z,35.09
2019-02-18T08:49:03.716Z,29.42
2019-02-18T08:50:03.429Z,37.51
2019-02-18T08:51:03.320Z,39.9
2019-02-18T08:52:02.935Z,34.9
2019-02-18T08:53:03.425Z,37.55
2019-02-18T08:54:03.541Z,39.99
2019-02-18T08:55:03.624Z,38.25
2019-02-18T08:56:03.707Z,33.78
2019-02-18T08:57:03.423Z,32.74
2019-02-18T08:58:03.524Z,29.28
2019-02-18T08:59:02.768Z,35.98
2019-02-18T09:00:03.355Z,28.6
2019-02-18T09:01:03.715Z,30.61
2019-02-18T09:02:03.050Z,29.63
2019-02-18T09:03:03.194Z,33.11
2019-02-18T09:04:03.029Z,30.46
2019-02-18T09:05:03.434Z,33.3
2019-02-18T09:06:02.729Z,30.12
2019-02-18T09:07:03.133Z,29.41
2019-02-18T09:08:03.633Z,32.8
2019-02-18T09:09:02.816Z,33.09
2019-02-18T09:10:03.533Z,34.13
2019-02-18T09:11:02.949Z,34.7
2019-02-18T09:12:03.544Z,32.01
2019-02-18T09:13:03.513Z,29.54
2019-02-18T09:14:03.375Z,34.96
2019-02-18T09:15:03.839Z,34.74
2019-02-18T09:16:03.251Z,39.68
2019-02-18T09:17:03.545Z,37.29
2019-02-18T09:18:02.911Z,32.15
2019-02-18T09:19:03.286Z,31.69
2019-02-18T09:20:02.881Z,35.45
2019-02-18T09:21:03.246Z,28.13
2019-02-18T09:22:02.841Z,33.84
2019-02-18T09:23:03.264Z,32.47
2019-02-18T09:24:02.643Z,27.54
2019-02-18T09:25:03.438Z,28.03
2019-02-18T09:26:02.846Z,28.45
2019-02-18T09:27:03.940Z,30.95
2019-02-18T09:28:02.785Z,31.95
2019-02-18T09:29:03.367Z,34.41
2019-02-18T09:30:03.813Z,30.35
2019-02-18T09:31:03.085Z,30.29
2019-02-18T09:32:03.589Z,26.98
2019-02-18T09:33:02.967Z,30.92
2019-02-18T09:34:02.921Z,27.36
2019-02-18T09:35:03.286Z,35.32
2019-02-18T09:36:03.195Z,35.32
2019-02-18T09:37:02.893Z,30.33
2019-02-18T09:38:03.573Z,32.45
2019-02-18T09:39:03.124Z,32.45
2019-02-18T09:40:03.372Z,30.06
2019-02-18T09:41:03.257Z,28.61
2019-02-18T09:42:02.722Z,28.61
2019-02-18T09:43:03.299Z,34.75
2019-02-18T09:44:03.722Z,30.37
2019-02-18T09:45:03.158Z,35.48
2019-02-18T09:46:02.695Z,28.62
2019-02-18T09:47:03.224Z,29.76
2019-02-18T09:48:02.642Z,33.04
2019-02-18T09:49:03.177Z,39.52
2019-02-18T09:50:03.596Z,32.95
2019-02-18T09:51:02.917Z,26.31
2019-02-18T09:52:03.228Z,27.16
2019-02-18T09:53:02.752Z,25.75
2019-02-18T09:54:03.762Z,29.71
2019-02-18T09:55:02.801Z,24.64
2019-02-18T09:56:03.292Z,24.33
2019-02-18T09:57:02.757Z,30.77
2019-02-18T09:58:03.149Z,22.61
2019-02-18T09:59:03.701Z,22.86
2019-02-18T10:00:03.152Z,22.52
2019-02-18T10:01:03.186Z,31.26
2019-02-18T10:02:02.778Z,26.55
2019-02-18T10:03:02.942Z,23.78
2019-02-18T10:04:03.660Z,26.29
2019-02-18T10:05:03.076Z,25.64
2019-02-18T10:06:03.458Z,31.38
2019-02-18T10:07:02.852Z,24.97
2019-02-18T10:08:03.425Z,28.46
2019-02-18T10:09:03.767Z,28.01
2019-02-18T10:10:04.673Z,24.92
2019-02-18T10:11:02.759Z,31.06
2019-02-18T10:12:03.029Z,26.21
2019-02-18T10:13:03.563Z,28.53
2019-02-18T10:14:03.030Z,28.54
2019-02-18T10:15:03.310Z,28.82
2019-02-18T10:16:02.737Z,31.05
2019-02-18T10:17:03.145Z,27.16
2019-02-18T10:18:02.732Z,23.29
2019-02-18T10:19:03.301Z,24.44
2019-02-18T10:20:03.728Z,28.65
2019-02-18T10:21:02.905Z,25.52
2019-02-18T10:22:03.425Z,27.63
2019-02-18T10:23:02.922Z,23.66
2019-02-18T10:24:03.258Z,28.83
2019-02-18T10:25:03.775Z,28.83
2019-02-18T10:26:03.036Z,31.48
2019-02-18T10:27:03.302Z,31.48
2019-02-18T10:28:02.966Z,25.12
2019-02-18T10:29:03.108Z,17.48
2019-02-18T10:30:04.279Z,17.48
2019-02-18T10:31:02.989Z,28.66
2019-02-18T10:32:03.566Z,20.84
2019-02-18T10:33:02.945Z,19.81
2019-02-18T10:34:03.313Z,15.48
2019-02-18T10:35:03.003Z,18.97
2019-02-18T10:36:03.573Z,16.75
2019-02-18T10:37:03.175Z,15.16
2019-02-18T10:38:03.425Z,16.05
2019-02-18T10:39:02.978Z,15.43
2019-02-18T10:40:03.301Z,15.36
2019-02-18T10:41:06.717Z,17.45
2019-02-18T10:42:03.075Z,16.24
2019-02-18T10:43:03.447Z,20.69
2019-02-18T10:44:03.121Z,17.82
2019-02-18T10:45:03.594Z,22.83
2019-02-18T10:46:02.788Z,18.05
2019-02-18T10:47:03.508Z,21.19
2019-02-18T10:48:03.774Z,14.36
2019-02-18T10:49:02.957Z,20.28
2019-02-18T10:50:03.544Z,22.35
2019-02-18T10:51:02.933Z,19.72
2019-02-18T10:52:03.438Z,16.08
2019-02-18T10:53:03.039Z,16.3
2019-02-18T10:54:03.377Z,18.93
2019-02-18T10:55:03.660Z,14.59
2019-02-18T10:56:03.015Z,15.78
2019-02-18T10:57:03.222Z,16.54
2019-02-18T10:58:02.659Z,18.87
2019-02-18T10:59:03.163Z,14.94
2019-02-18T11:00:03.753Z,15.9
2019-02-18T11:01:03.016Z,14.42
2019-02-18T11:02:02.841Z,17.01
2019-02-18T11:03:03.414Z,18.8
2019-02-18T11:04:03.780Z,28.09
2019-02-18T11:05:03.241Z,22.39
2019-02-18T11:06:03.483Z,21.35
2019-02-18T11:07:03.001Z,23.32
2019-02-18T11:08:03.678Z,16.44
2019-02-18T11:09:03.286Z,18.89
2019-02-18T11:10:03.686Z,18.64
2019-02-18T11:11:03.067Z,18.89
2019-02-18T11:12:03.447Z,28.74
2019-02-18T11:13:02.870Z,20.88
2019-02-18T11:14:02.698Z,20.88
2019-02-18T11:15:03.214Z,18.35
2019-02-18T11:16:03.657Z,18.35
2019-02-18T11:17:02.968Z,21.89
2019-02-18T11:18:03.486Z,20.24
2019-02-18T11:19:03.694Z,20.24
2019-02-18T11:20:03.377Z,17.92
2019-02-18T11:21:02.771Z,17.85
2019-02-18T11:22:03.283Z,18.35
2019-02-18T11:23:03.575Z,22.08
2019-02-18T11:24:03.149Z,16.8
2019-02-18T11:25:03.405Z,17.33
2019-02-18T11:26:02.632Z,15.39
2019-02-18T11:27:02.924Z,16.64
2019-02-18T11:28:03.071Z,17.31
2019-02-18T11:29:03.280Z,15.65
2019-02-18T11:30:02.829Z,23.08
2019-02-18T11:31:03.293Z,16.25
2019-02-18T11:32:02.907Z,15.48
2019-02-18T11:33:02.825Z,14.48
2019-02-18T11:34:03.507Z,16.89
2019-02-18T11:35:02.805Z,20.08
2019-02-18T11:36:03.050Z,16.41
2019-02-18T11:37:02.738Z,16.62
2019-02-18T11:38:02.981Z,15.97
2019-02-18T11:39:03.543Z,17.24
2019-02-18T11:40:03.080Z,16.36
2019-02-18T11:41:03.441Z,18.38
2019-02-18T11:42:02.878Z,15.21
2019-02-18T11:43:03.175Z,13.75
2019-02-18T11:44:03.654Z,16.98
2019-02-18T11:45:03.192Z,17.71
2019-02-18T11:46:02.720Z,14.64
2019-02-18T11:47:03.252Z,15.52
2019-02-18T11:48:03.557Z,14.17
2019-02-18T11:49:02.935Z,17.32
2019-02-18T11:50:03.502Z,15.13
2019-02-18T11:51:03.126Z,12.25
2019-02-18T11:52:03.398Z,13.62
2019-02-18T11:53:02.767Z,14.38
2019-02-18T11:54:03.412Z,17.68
2019-02-18T11:55:02.569Z,13.95
2019-02-18T11:56:03.428Z,16.68
2019-02-18T11:57:03.591Z,14.28
2019-02-18T11:58:03.517Z,15.08
2019-02-18T11:59:03.236Z,15.08
2019-02-18T12:00:03.488Z,16.84
2019-02-18T12:01:03.153Z,13.72
2019-02-18T12:02:03.714Z,13.72
2019-02-18T12:03:08.547Z,16.07
2019-02-18T12:04:03.066Z,16.07
2019-02-18T12:05:02.487Z,12.39
2019-02-18T12:06:03.318Z,15.76
2019-02-18T12:07:02.768Z,15.76
2019-02-18T12:08:03.169Z,14.39
2019-02-18T12:09:03.588Z,23.08
2019-02-18T12:10:03.213Z,15.08
2019-02-18T12:11:03.734Z,12.47
2019-02-18T12:12:03.126Z,15.5
2019-02-18T12:13:02.891Z,16.27
2019-02-18T12:14:03.405Z,16.27
2019-02-18T12:15:02.876Z,14.52
2019-02-18T12:16:03.445Z,16.24
2019-02-18T12:17:02.963Z,23.21
2019-02-18T12:18:02.654Z,13.21
2019-02-18T12:19:03.022Z,12.76
2019-02-18T12:20:03.424Z,14.39
2019-02-18T12:21:02.704Z,15.52
2019-02-18T12:22:03.478Z,10.61
2019-02-18T12:23:03.697Z,13.88
2019-02-18T12:24:03.170Z,18.35
2019-02-18T12:25:03.668Z,13.29
2019-02-18T12:26:03.144Z,13.69
2019-02-18T12:27:02.628Z,15.64
2019-02-18T12:28:03.193Z,17.64
2019-02-18T12:29:03.545Z,12.74
2019-02-18T12:30:03.140Z,11.67
2019-02-18T12:31:02.882Z,15.26
2019-02-18T12:32:03.155Z,18.86
2019-02-18T12:33:03.937Z,13.32
2019-02-18T12:34:03.051Z,14.61
2019-02-18T12:35:02.881Z,15.87
2019-02-18T12:36:03.328Z,13.94
2019-02-18T12:37:03.646Z,14.84
2019-02-18T12:38:03.383Z,15.12
2019-02-18T12:39:03.497Z,11.87
2019-02-18T12:40:03.030Z,16.69
2019-02-18T12:41:03.008Z,10.15
2019-02-18T12:42:03.735Z,12.61
2019-02-18T12:43:03.473Z,10.41
2019-02-18T12:44:03.036Z,13.32
2019-02-18T12:45:03.338Z,11.59
2019-02-18T12:46:02.746Z,10.94
2019-02-18T12:47:03.250Z,11.62
2019-02-18T12:48:03.820Z,12.87
2019-02-18T12:49:03.565Z,13.64
2019-02-18T12:50:02.842Z,15.84
2019-02-18T12:51:03.442Z,9.57
2019-02-18T12:52:02.829Z,11.4
2019-02-18T12:53:03.556Z,11.4
2019-02-18T12:54:04.922Z,14.52